Wrightsville Beach, NC (28480)

3:48 PM EDT on August 02, 2015 (GMT -0400)
Parmele Isle | | Change Station
CLOSE
Current Station
Personal Weather Station
Location: Wrightsville Beach, NC
Elevation: 35 ft
Nearby Weather Stations

Elev 35 ft 34.22 °N, 77.79 °W | Updated 4 minutes ago

Mostly Cloudy
Mostly Cloudy
84.0 °F
Feels Like 88 °F
N
12.0
Wind Variable Wind from SSE
Gusts 22.0 mph

Today
High -- | Low -- °F
--% Chance of Precip.
Yesterday
High -- | Low -- °F
Precip. -- in
6:22 AM 8:11 PM
Waning Gibbous, 92% visible
Pressure 29.94 in
Visibility 10.0 miles
Clouds Mostly Cloudy 7500 ft
Mostly Cloudy 9000 ft
Heat Index 88 °F
Dew Point 70 °F
Humidity 63%
Rainfall 0.00 in
Snow Depth Not available.
UV 5 out of 12
Pollen 3.80 out of 12
Air Quality Not available.
Flu Activity Not available.
SPECI KILM 021921Z 14009KT 10SM BKN075 BKN090 30/23 A2994 RMK AO2 LTG DSNT NE T03000233

More Conditions Fewer Conditions

Pressure 29.94 in
Visibility 10.0 miles
Clouds Mostly Cloudy 7500 ft
Mostly Cloudy 9000 ft
Heat Index 88 °F
Dew Point 70 °F
Humidity 63%
Rainfall 0.00 in
Snow Depth Not available.
UV 5 out of 12
Pollen 3.80 out of 12
Air Quality Not available.
Flu Activity Not available.
SPECI KILM 021921Z 14009KT 10SM BKN075 BKN090 30/23 A2994 RMK AO2 LTG DSNT NE T03000233

More Conditions Fewer Conditions

10-Day Weather Forecast

×

Almanac

Astronomy

Aug. 02, 2015 Rise Set
Actual Time
Civil Twilight
Nautical Twilight
Astronomical Twilight
Moon
Length of Visible Light
Length of Day
Tomorrow will be .
, % of the Moon is Illuminated

Today's Extremes

State Highs State Lows

Community

WunderPhotos

Upload Photos

1,843,345 photos uploaded!

WunderBlogs® & News

Nearby

Air Quality

  Air Quality AQ Index Pollutant
Not available.

Snow Depth

Station Depth Elevation

Earthquake Activity

City Distance Mag. Time & Date
Minimum magnitude displayed is 2.5.

Coastal Water Temperatures

Place Temperature

Stations

Nearby Weather Stations

Station Location Temp. Windchill Dew Point Humidity Wind Precip. Elev Updated Type